sensor_id;sensor_type;location;lat;lon;timestamp;pressure;altitude;pressure_sealevel;temperature;humidity
61408;BME280;47274;43.054;25.146;2023-03-25T00:00:11;95129.19;;;9.94;60.73
61408;BME280;47274;43.054;25.146;2023-03-25T00:02:42;95126.47;;;9.95;60.64
61408;BME280;47274;43.054;25.146;2023-03-25T00:05:10;95130.75;;;9.87;61.18
61408;BME280;47274;43.054;25.146;2023-03-25T00:07:37;95128.25;;;9.95;60.99
61408;BME280;47274;43.054;25.146;2023-03-25T00:10:03;95124.66;;;10.22;60.50
61408;BME280;47274;43.054;25.146;2023-03-25T00:12:29;95132.63;;;10.11;60.43
61408;BME280;47274;43.054;25.146;2023-03-25T00:14:55;95127.00;;;10.07;60.27
61408;BME280;47274;43.054;25.146;2023-03-25T00:17:24;95124.75;;;10.04;60.63
61408;BME280;47274;43.054;25.146;2023-03-25T00:19:54;95092.09;;;9.80;60.85
61408;BME280;47274;43.054;25.146;2023-03-25T00:22:21;95125.34;;;9.98;60.21
61408;BME280;47274;43.054;25.146;2023-03-25T00:24:47;95122.75;;;9.90;61.22
61408;BME280;47274;43.054;25.146;2023-03-25T00:27:14;95117.59;;;9.82;61.24
61408;BME280;47274;43.054;25.146;2023-03-25T00:29:43;95123.56;;;9.90;60.86
61408;BME280;47274;43.054;25.146;2023-03-25T00:32:09;95124.22;;;9.92;60.79
61408;BME280;47274;43.054;25.146;2023-03-25T00:34:35;95123.06;;;9.87;60.86
61408;BME280;47274;43.054;25.146;2023-03-25T00:37:09;95112.16;;;9.85;60.45
61408;BME280;47274;43.054;25.146;2023-03-25T00:39:37;95109.28;;;9.88;60.62
61408;BME280;47274;43.054;25.146;2023-03-25T00:42:04;95109.69;;;9.75;61.26
61408;BME280;47274;43.054;25.146;2023-03-25T00:44:30;95097.63;;;9.67;61.23
61408;BME280;47274;43.054;25.146;2023-03-25T00:46:57;95091.47;;;9.78;59.86
61408;BME280;47274;43.054;25.146;2023-03-25T00:49:22;95118.13;;;9.93;59.75
61408;BME280;47274;43.054;25.146;2023-03-25T00:51:54;95104.69;;;9.91;59.88
61408;BME280;47274;43.054;25.146;2023-03-25T00:54:22;95087.59;;;10.08;58.07
61408;BME280;47274;43.054;25.146;2023-03-25T00:56:49;95106.06;;;10.54;56.30
61408;BME280;47274;43.054;25.146;2023-03-25T00:59:15;95102.16;;;10.42;56.95
61408;BME280;47274;43.054;25.146;2023-03-25T01:01:41;95094.47;;;10.34;56.97
61408;BME280;47274;43.054;25.146;2023-03-25T01:04:07;95089.88;;;10.54;55.99
61408;BME280;47274;43.054;25.146;2023-03-25T01:06:42;95085.59;;;10.79;54.79
61408;BME280;47274;43.054;25.146;2023-03-25T01:09:11;95093.78;;;10.90;54.10
61408;BME280;47274;43.054;25.146;2023-03-25T01:11:43;95083.84;;;10.87;53.99
61408;BME280;47274;43.054;25.146;2023-03-25T01:14:18;95084.34;;;10.99;53.46
61408;BME280;47274;43.054;25.146;2023-03-25T01:16:44;95064.75;;;10.74;54.20
61408;BME280;47274;43.054;25.146;2023-03-25T01:19:11;95077.75;;;10.80;54.72
61408;BME280;47274;43.054;25.146;2023-03-25T01:21:37;95073.53;;;10.63;54.86
61408;BME280;47274;43.054;25.146;2023-03-25T01:24:04;95074.66;;;10.68;54.36
61408;BME280;47274;43.054;25.146;2023-03-25T01:26:30;95064.06;;;10.55;55.67
61408;BME280;47274;43.054;25.146;2023-03-25T01:28:57;95077.84;;;10.46;55.48
61408;BME280;47274;43.054;25.146;2023-03-25T01:31:22;95072.06;;;10.44;55.92
61408;BME280;47274;43.054;25.146;2023-03-25T01:33:50;95076.81;;;10.39;56.45
61408;BME280;47274;43.054;25.146;2023-03-25T01:36:16;95066.25;;;10.34;55.90
61408;BME280;47274;43.054;25.146;2023-03-25T01:38:42;95054.94;;;10.18;56.37
61408;BME280;47274;43.054;25.146;2023-03-25T01:41:09;95064.06;;;10.55;55.20
61408;BME280;47274;43.054;25.146;2023-03-25T01:43:35;95057.63;;;10.43;55.58
61408;BME280;47274;43.054;25.146;2023-03-25T01:46:01;95041.31;;;10.18;56.20
61408;BME280;47274;43.054;25.146;2023-03-25T01:48:31;95038.03;;;10.26;56.02
61408;BME280;47274;43.054;25.146;2023-03-25T01:51:28;95058.56;;;10.42;55.39
61408;BME280;47274;43.054;25.146;2023-03-25T01:53:56;95041.78;;;10.64;54.17
61408;BME280;47274;43.054;25.146;2023-03-25T01:56:26;95049.16;;;10.59;54.47
61408;BME280;47274;43.054;25.146;2023-03-25T01:58:55;95049.94;;;10.51;54.69
61408;BME280;47274;43.054;25.146;2023-03-25T02:01:22;95039.38;;;10.46;55.46
61408;BME280;47274;43.054;25.146;2023-03-25T02:03:49;95031.31;;;10.49;54.28
61408;BME280;47274;43.054;25.146;2023-03-25T02:06:24;95035.84;;;10.72;53.75
61408;BME280;47274;43.054;25.146;2023-03-25T02:09:02;95020.91;;;10.51;54.19
61408;BME280;47274;43.054;25.146;2023-03-25T02:11:32;95041.47;;;10.67;53.96
61408;BME280;47274;43.054;25.146;2023-03-25T02:14:02;95039.09;;;10.74;54.29
61408;BME280;47274;43.054;25.146;2023-03-25T02:19:38;95035.66;;;10.49;55.52
61408;BME280;47274;43.054;25.146;2023-03-25T02:25:22;95011.69;;;10.24;56.60
61408;BME280;47274;43.054;25.146;2023-03-25T02:28:11;95020.22;;;10.32;56.21
61408;BME280;47274;43.054;25.146;2023-03-25T02:36:29;95003.22;;;10.23;55.80
61408;BME280;47274;43.054;25.146;2023-03-25T02:39:02;95003.22;;;10.23;55.25
61408;BME280;47274;43.054;25.146;2023-03-25T02:41:45;95019.13;;;10.35;55.57
61408;BME280;47274;43.054;25.146;2023-03-25T02:47:14;95012.91;;;9.95;58.02
61408;BME280;47274;43.054;25.146;2023-03-25T02:49:46;94999.78;;;9.64;59.01
61408;BME280;47274;43.054;25.146;2023-03-25T02:52:18;95019.72;;;9.78;58.96
61408;BME280;47274;43.054;25.146;2023-03-25T02:54:47;95004.06;;;9.55;59.46
61408;BME280;47274;43.054;25.146;2023-03-25T02:57:17;95007.34;;;9.73;59.02
61408;BME280;47274;43.054;25.146;2023-03-25T02:59:45;95016.53;;;9.84;58.05
61408;BME280;47274;43.054;25.146;2023-03-25T03:02:12;94997.16;;;9.90;57.96
61408;BME280;47274;43.054;25.146;2023-03-25T03:04:48;95009.00;;;9.91;57.40
61408;BME280;47274;43.054;25.146;2023-03-25T03:07:36;95006.63;;;9.97;57.37
61408;BME280;47274;43.054;25.146;2023-03-25T03:18:32;94988.16;;;10.28;54.80
61408;BME280;47274;43.054;25.146;2023-03-25T03:21:12;94984.81;;;10.28;55.63
61408;BME280;47274;43.054;25.146;2023-03-25T03:23:56;94993.31;;;10.36;55.48
61408;BME280;47274;43.054;25.146;2023-03-25T03:26:28;94984.47;;;10.23;56.08
61408;BME280;47274;43.054;25.146;2023-03-25T03:31:49;94972.66;;;9.87;57.62
61408;BME280;47274;43.054;25.146;2023-03-25T03:34:24;94979.22;;;9.82;58.13
61408;BME280;47274;43.054;25.146;2023-03-25T03:36:54;94975.47;;;9.68;58.54
61408;BME280;47274;43.054;25.146;2023-03-25T03:39:26;94989.94;;;9.85;58.37
61408;BME280;47274;43.054;25.146;2023-03-25T03:41:57;94996.06;;;9.92;57.43
61408;BME280;47274;43.054;25.146;2023-03-25T03:44:30;94985.00;;;9.92;57.52
61408;BME280;47274;43.054;25.146;2023-03-25T03:47:21;94980.84;;;9.57;59.29
61408;BME280;47274;43.054;25.146;2023-03-25T03:49:57;94978.66;;;9.36;60.37
61408;BME280;47274;43.054;25.146;2023-03-25T03:52:34;94981.63;;;9.23;60.55
61408;BME280;47274;43.054;25.146;2023-03-25T03:55:19;94992.22;;;9.28;60.32
61408;BME280;47274;43.054;25.146;2023-03-25T03:57:52;94993.28;;;9.17;60.74
61408;BME280;47274;43.054;25.146;2023-03-25T04:00:21;94996.66;;;9.18;61.00
61408;BME280;47274;43.054;25.146;2023-03-25T04:03:21;94994.75;;;9.20;60.50
61408;BME280;47274;43.054;25.146;2023-03-25T04:06:02;94979.41;;;9.02;61.69
61408;BME280;47274;43.054;25.146;2023-03-25T04:09:50;94986.88;;;9.13;61.33
61408;BME280;47274;43.054;25.146;2023-03-25T04:12:15;94985.94;;;9.22;60.38
61408;BME280;47274;43.054;25.146;2023-03-25T04:14:43;94990.22;;;9.40;59.50
61408;BME280;47274;43.054;25.146;2023-03-25T04:17:09;94996.53;;;9.54;58.75
61408;BME280;47274;43.054;25.146;2023-03-25T04:19:35;94992.84;;;9.48;59.34
61408;BME280;47274;43.054;25.146;2023-03-25T04:22:02;95008.19;;;9.48;59.32
61408;BME280;47274;43.054;25.146;2023-03-25T04:24:28;94986.53;;;9.34;60.05
61408;BME280;47274;43.054;25.146;2023-03-25T04:26:58;94992.13;;;9.38;59.37
61408;BME280;47274;43.054;25.146;2023-03-25T04:29:32;94994.31;;;9.59;58.21
61408;BME280;47274;43.054;25.146;2023-03-25T04:31:59;95008.91;;;9.66;57.66
61408;BME280;47274;43.054;25.146;2023-03-25T04:34:26;94998.19;;;9.63;57.62
61408;BME280;47274;43.054;25.146;2023-03-25T04:36:53;94993.84;;;9.63;57.91
61408;BME280;47274;43.054;25.146;2023-03-25T04:39:19;95007.31;;;9.65;58.40
61408;BME280;47274;43.054;25.146;2023-03-25T04:41:49;95014.63;;;9.86;57.25
61408;BME280;47274;43.054;25.146;2023-03-25T04:44:16;94985.75;;;9.76;56.52
61408;BME280;47274;43.054;25.146;2023-03-25T04:46:42;95002.28;;;9.90;57.60
61408;BME280;47274;43.054;25.146;2023-03-25T04:49:16;95007.47;;;10.06;56.54
61408;BME280;47274;43.054;25.146;2023-03-25T04:51:44;95006.81;;;9.96;57.02
61408;BME280;47274;43.054;25.146;2023-03-25T04:54:10;95000.72;;;9.97;56.45
61408;BME280;47274;43.054;25.146;2023-03-25T04:56:36;95000.09;;;9.95;57.00
61408;BME280;47274;43.054;25.146;2023-03-25T04:59:04;95002.41;;;10.23;56.36
61408;BME280;47274;43.054;25.146;2023-03-25T05:01:31;95007.88;;;10.28;55.90
61408;BME280;47274;43.054;25.146;2023-03-25T05:04:01;95004.69;;;10.26;56.42
61408;BME280;47274;43.054;25.146;2023-03-25T05:06:36;95024.91;;;10.45;55.25
61408;BME280;47274;43.054;25.146;2023-03-25T05:09:07;95017.22;;;10.45;55.69
61408;BME280;47274;43.054;25.146;2023-03-25T05:11:35;95030.38;;;10.58;56.12
61408;BME280;47274;43.054;25.146;2023-03-25T05:14:09;95021.41;;;10.62;55.54
61408;BME280;47274;43.054;25.146;2023-03-25T05:16:36;95023.81;;;10.72;55.32
61408;BME280;47274;43.054;25.146;2023-03-25T05:19:02;95022.41;;;10.78;53.93
61408;BME280;47274;43.054;25.146;2023-03-25T05:21:29;95029.94;;;10.96;53.96
61408;BME280;47274;43.054;25.146;2023-03-25T05:23:56;95016.94;;;10.97;53.97
61408;BME280;47274;43.054;25.146;2023-03-25T05:26:25;95006.19;;;11.02;52.07
61408;BME280;47274;43.054;25.146;2023-03-25T05:28:53;95019.81;;;11.19;52.62
61408;BME280;47274;43.054;25.146;2023-03-25T05:31:21;95014.66;;;11.27;51.17
61408;BME280;47274;43.054;25.146;2023-03-25T05:33:46;95025.25;;;11.40;51.14
61408;BME280;47274;43.054;25.146;2023-03-25T05:36:13;95015.63;;;11.42;51.71
61408;BME280;47274;43.054;25.146;2023-03-25T05:38:40;95021.69;;;11.49;51.73
61408;BME280;47274;43.054;25.146;2023-03-25T05:41:07;95023.28;;;11.58;50.48
61408;BME280;47274;43.054;25.146;2023-03-25T05:43:39;95025.19;;;11.73;51.04
61408;BME280;47274;43.054;25.146;2023-03-25T05:46:05;95015.19;;;11.78;50.84
61408;BME280;47274;43.054;25.146;2023-03-25T05:48:31;95028.34;;;11.91;50.10
61408;BME280;47274;43.054;25.146;2023-03-25T05:51:10;95028.50;;;11.98;51.22
61408;BME280;47274;43.054;25.146;2023-03-25T05:53:41;95031.94;;;12.13;49.40
61408;BME280;47274;43.054;25.146;2023-03-25T05:56:09;95033.38;;;12.16;49.53
61408;BME280;47274;43.054;25.146;2023-03-25T05:58:35;95028.63;;;12.36;50.39
61408;BME280;47274;43.054;25.146;2023-03-25T06:01:03;95015.50;;;12.53;49.52
61408;BME280;47274;43.054;25.146;2023-03-25T06:03:29;95037.47;;;12.87;49.86
61408;BME280;47274;43.054;25.146;2023-03-25T06:05:59;95038.97;;;13.04;49.44
61408;BME280;47274;43.054;25.146;2023-03-25T06:08:26;95037.69;;;13.23;48.74
61408;BME280;47274;43.054;25.146;2023-03-25T06:10:55;95030.19;;;13.37;47.82
61408;BME280;47274;43.054;25.146;2023-03-25T06:13:23;95019.91;;;13.51;48.31
61408;BME280;47274;43.054;25.146;2023-03-25T06:15:49;95023.81;;;13.77;46.82
61408;BME280;47274;43.054;25.146;2023-03-25T06:18:23;95034.47;;;14.04;45.55
61408;BME280;47274;43.054;25.146;2023-03-25T06:20:52;95016.03;;;14.21;44.40
61408;BME280;47274;43.054;25.146;2023-03-25T06:23:23;95030.69;;;14.36;44.31
61408;BME280;47274;43.054;25.146;2023-03-25T06:25:50;95020.34;;;14.51;44.25
61408;BME280;47274;43.054;25.146;2023-03-25T06:28:16;95036.34;;;15.04;44.10
61408;BME280;47274;43.054;25.146;2023-03-25T06:30:46;95037.22;;;14.89;45.20
61408;BME280;47274;43.054;25.146;2023-03-25T06:33:13;95037.22;;;15.11;42.94
61408;BME280;47274;43.054;25.146;2023-03-25T06:35:40;95040.84;;;15.16;43.68
61408;BME280;47274;43.054;25.146;2023-03-25T06:38:08;95037.16;;;15.54;45.60
61408;BME280;47274;43.054;25.146;2023-03-25T06:40:56;95040.81;;;15.94;42.67
61408;BME280;47274;43.054;25.146;2023-03-25T06:43:22;95033.31;;;16.13;43.45
61408;BME280;47274;43.054;25.146;2023-03-25T06:46:03;95027.66;;;16.44;42.79
61408;BME280;47274;43.054;25.146;2023-03-25T06:48:47;95052.91;;;16.76;42.70
61408;BME280;47274;43.054;25.146;2023-03-25T06:51:13;95045.16;;;16.96;42.75
61408;BME280;47274;43.054;25.146;2023-03-25T06:53:39;95052.78;;;17.24;42.98
61408;BME280;47274;43.054;25.146;2023-03-25T06:56:05;95050.19;;;17.51;42.88
61408;BME280;47274;43.054;25.146;2023-03-25T06:58:31;95051.75;;;17.72;41.80
61408;BME280;47274;43.054;25.146;2023-03-25T07:01:00;95053.53;;;17.91;42.24
61408;BME280;47274;43.054;25.146;2023-03-25T07:03:32;95042.34;;;17.91;40.60
61408;BME280;47274;43.054;25.146;2023-03-25T07:05:57;95055.16;;;17.79;40.20
61408;BME280;47274;43.054;25.146;2023-03-25T07:08:23;95055.72;;;17.88;40.13
61408;BME280;47274;43.054;25.146;2023-03-25T07:10:49;95058.09;;;18.09;41.10
61408;BME280;47274;43.054;25.146;2023-03-25T07:13:15;95054.97;;;18.39;40.45
61408;BME280;47274;43.054;25.146;2023-03-25T07:15:41;95047.19;;;18.39;39.01
61408;BME280;47274;43.054;25.146;2023-03-25T07:18:06;95052.78;;;18.42;39.25
61408;BME280;47274;43.054;25.146;2023-03-25T07:20:32;95056.31;;;18.55;38.19
61408;BME280;47274;43.054;25.146;2023-03-25T07:22:58;95046.59;;;18.43;39.37
61408;BME280;47274;43.054;25.146;2023-03-25T07:25:24;95050.34;;;18.92;39.69
61408;BME280;47274;43.054;25.146;2023-03-25T07:27:49;95053.13;;;18.98;37.34
61408;BME280;47274;43.054;25.146;2023-03-25T07:30:19;95049.03;;;18.77;38.69
61408;BME280;47274;43.054;25.146;2023-03-25T07:32:45;95050.78;;;18.89;38.38
61408;BME280;47274;43.054;25.146;2023-03-25T07:35:11;95065.13;;;18.99;38.54
61408;BME280;47274;43.054;25.146;2023-03-25T07:37:37;95066.97;;;19.23;37.52
61408;BME280;47274;43.054;25.146;2023-03-25T07:40:03;95068.47;;;19.06;38.53
61408;BME280;47274;43.054;25.146;2023-03-25T07:42:28;95067.00;;;19.16;37.06
61408;BME280;47274;43.054;25.146;2023-03-25T07:45:17;95059.44;;;19.40;37.35
61408;BME280;47274;43.054;25.146;2023-03-25T07:47:44;95073.91;;;19.04;37.15
61408;BME280;47274;43.054;25.146;2023-03-25T07:50:18;95065.56;;;19.21;37.32
61408;BME280;47274;43.054;25.146;2023-03-25T07:52:45;95068.28;;;19.57;37.90
61408;BME280;47274;43.054;25.146;2023-03-25T07:55:11;95068.97;;;19.96;36.85
61408;BME280;47274;43.054;25.146;2023-03-25T07:57:38;95070.81;;;20.14;36.75
61408;BME280;47274;43.054;25.146;2023-03-25T08:00:06;95051.03;;;20.06;35.86
61408;BME280;47274;43.054;25.146;2023-03-25T08:02:37;95067.53;;;20.37;36.57
61408;BME280;47274;43.054;25.146;2023-03-25T08:05:04;95051.69;;;20.20;37.00
61408;BME280;47274;43.054;25.146;2023-03-25T08:07:31;95065.16;;;20.54;36.12
61408;BME280;47274;43.054;25.146;2023-03-25T08:09:57;95055.44;;;20.43;35.79
61408;BME280;47274;43.054;25.146;2023-03-25T08:12:23;95060.63;;;20.79;35.94
61408;BME280;47274;43.054;25.146;2023-03-25T08:14:48;95080.41;;;20.99;35.01
61408;BME280;47274;43.054;25.146;2023-03-25T08:17:14;95065.00;;;20.67;35.26
61408;BME280;47274;43.054;25.146;2023-03-25T08:19:40;95055.31;;;20.56;35.04
61408;BME280;47274;43.054;25.146;2023-03-25T08:22:06;95057.09;;;20.74;35.10
61408;BME280;47274;43.054;25.146;2023-03-25T08:24:32;95054.91;;;20.71;35.14
61408;BME280;47274;43.054;25.146;2023-03-25T08:26:58;95064.22;;;20.97;34.43
61408;BME280;47274;43.054;25.146;2023-03-25T08:29:26;95040.72;;;20.97;34.24
61408;BME280;47274;43.054;25.146;2023-03-25T08:31:52;95064.47;;;21.19;33.82
61408;BME280;47274;43.054;25.146;2023-03-25T08:34:20;95070.56;;;21.01;33.71
61408;BME280;47274;43.054;25.146;2023-03-25T08:36:46;95065.22;;;20.96;33.46
61408;BME280;47274;43.054;25.146;2023-03-25T08:39:13;95067.06;;;21.37;33.15
61408;BME280;47274;43.054;25.146;2023-03-25T08:41:42;95063.56;;;21.55;34.70
61408;BME280;47274;43.054;25.146;2023-03-25T08:44:09;95065.78;;;21.40;33.47
61408;BME280;47274;43.054;25.146;2023-03-25T08:46:36;95048.91;;;21.77;34.10
61408;BME280;47274;43.054;25.146;2023-03-25T08:49:03;95050.72;;;22.12;33.60
61408;BME280;47274;43.054;25.146;2023-03-25T08:51:29;95044.78;;;22.69;33.57
61408;BME280;47274;43.054;25.146;2023-03-25T08:53:55;95058.69;;;22.86;32.14
61408;BME280;47274;43.054;25.146;2023-03-25T08:56:21;95063.31;;;23.08;33.44
61408;BME280;47274;43.054;25.146;2023-03-25T08:58:46;95048.81;;;23.51;31.13
61408;BME280;47274;43.054;25.146;2023-03-25T09:01:12;95031.53;;;23.33;31.48
61408;BME280;47274;43.054;25.146;2023-03-25T09:03:38;95034.13;;;23.16;32.77
61408;BME280;47274;43.054;25.146;2023-03-25T09:06:06;95041.91;;;23.78;32.58
61408;BME280;47274;43.054;25.146;2023-03-25T09:08:33;95053.28;;;24.06;31.44
61408;BME280;47274;43.054;25.146;2023-03-25T09:10:59;95055.84;;;24.62;32.16
61408;BME280;47274;43.054;25.146;2023-03-25T09:13:25;95047.09;;;25.05;30.25
61408;BME280;47274;43.054;25.146;2023-03-25T09:15:51;95035.16;;;24.65;30.53
61408;BME280;47274;43.054;25.146;2023-03-25T09:18:17;95038.56;;;25.15;30.50
61408;BME280;47274;43.054;25.146;2023-03-25T09:20:43;95048.75;;;25.11;30.76
61408;BME280;47274;43.054;25.146;2023-03-25T09:23:14;95042.53;;;24.95;28.72
61408;BME280;47274;43.054;25.146;2023-03-25T09:25:39;95048.44;;;25.35;30.23
61408;BME280;47274;43.054;25.146;2023-03-25T09:28:06;95024.75;;;24.48;29.19
61408;BME280;47274;43.054;25.146;2023-03-25T09:30:32;95041.50;;;24.69;30.06
61408;BME280;47274;43.054;25.146;2023-03-25T09:32:57;95043.03;;;24.65;29.75
61408;BME280;47274;43.054;25.146;2023-03-25T09:35:25;95026.97;;;24.40;29.80
61408;BME280;47274;43.054;25.146;2023-03-25T09:37:51;95029.00;;;24.54;29.50
61408;BME280;47274;43.054;25.146;2023-03-25T09:40:19;95027.78;;;24.40;31.53
61408;BME280;47274;43.054;25.146;2023-03-25T09:45:31;95025.28;;;24.28;29.44
61408;BME280;47274;43.054;25.146;2023-03-25T09:48:04;95033.97;;;24.34;30.12
61408;BME280;47274;43.054;25.146;2023-03-25T09:50:35;95020.69;;;24.63;30.18
61408;BME280;47274;43.054;25.146;2023-03-25T09:56:12;95029.88;;;25.14;30.06
61408;BME280;47274;43.054;25.146;2023-03-25T09:58:51;95030.78;;;25.99;29.05
61408;BME280;47274;43.054;25.146;2023-03-25T10:03:55;95014.78;;;25.32;29.08
61408;BME280;47274;43.054;25.146;2023-03-25T10:06:24;95026.47;;;25.46;30.01
61408;BME280;47274;43.054;25.146;2023-03-25T10:11:49;95011.69;;;24.31;30.19
61408;BME280;47274;43.054;25.146;2023-03-25T10:14:32;95012.38;;;22.99;31.68
61408;BME280;47274;43.054;25.146;2023-03-25T10:19:51;95024.94;;;22.85;32.15
61408;BME280;47274;43.054;25.146;2023-03-25T10:22:26;95014.63;;;23.40;31.49
61408;BME280;47274;43.054;25.146;2023-03-25T10:25:03;95015.69;;;23.95;30.67
61408;BME280;47274;43.054;25.146;2023-03-25T10:27:36;94992.69;;;24.02;30.87
61408;BME280;47274;43.054;25.146;2023-03-25T10:32:40;94993.66;;;23.74;30.56
61408;BME280;47274;43.054;25.146;2023-03-25T10:35:11;95007.22;;;23.71;30.28
61408;BME280;47274;43.054;25.146;2023-03-25T10:37:39;95000.78;;;23.79;31.35
61408;BME280;47274;43.054;25.146;2023-03-25T10:45:23;94981.28;;;23.53;30.05
61408;BME280;47274;43.054;25.146;2023-03-25T10:47:50;94982.41;;;24.18;31.29
61408;BME280;47274;43.054;25.146;2023-03-25T10:50:19;94984.72;;;24.36;31.33
61408;BME280;47274;43.054;25.146;2023-03-25T10:52:47;94985.09;;;24.01;30.84
61408;BME280;47274;43.054;25.146;2023-03-25T10:55:34;94975.94;;;23.81;30.77
61408;BME280;47274;43.054;25.146;2023-03-25T10:58:02;94973.78;;;23.78;30.94
61408;BME280;47274;43.054;25.146;2023-03-25T11:00:29;94962.59;;;23.66;31.61
61408;BME280;47274;43.054;25.146;2023-03-25T11:02:55;94979.44;;;23.53;32.69
61408;BME280;47274;43.054;25.146;2023-03-25T11:05:23;94973.50;;;23.24;31.45
61408;BME280;47274;43.054;25.146;2023-03-25T11:07:55;94974.16;;;22.69;32.19
61408;BME280;47274;43.054;25.146;2023-03-25T11:10:28;94968.00;;;22.18;32.83
61408;BME280;47274;43.054;25.146;2023-03-25T11:12:55;94966.97;;;21.55;33.01
61408;BME280;47274;43.054;25.146;2023-03-25T11:15:30;94965.13;;;21.56;34.67
61408;BME280;47274;43.054;25.146;2023-03-25T11:18:04;94948.09;;;21.18;33.94
61408;BME280;47274;43.054;25.146;2023-03-25T11:20:54;94956.16;;;21.16;35.00
61408;BME280;47274;43.054;25.146;2023-03-25T11:23:33;94964.34;;;20.78;34.94
61408;BME280;47274;43.054;25.146;2023-03-25T11:26:24;94956.78;;;20.88;33.92
61408;BME280;47274;43.054;25.146;2023-03-25T11:29:18;94961.72;;;21.43;33.34
61408;BME280;47274;43.054;25.146;2023-03-25T11:32:03;94954.38;;;22.04;32.81
61408;BME280;47274;43.054;25.146;2023-03-25T11:34:30;94949.34;;;22.14;32.27
61408;BME280;47274;43.054;25.146;2023-03-25T11:37:01;94954.50;;;22.66;32.33
61408;BME280;47274;43.054;25.146;2023-03-25T11:39:36;94935.38;;;22.20;31.91
61408;BME280;47274;43.054;25.146;2023-03-25T11:44:51;94941.91;;;22.80;30.57
61408;BME280;47274;43.054;25.146;2023-03-25T11:47:38;94950.63;;;22.69;30.93
61408;BME280;47274;43.054;25.146;2023-03-25T11:50:06;94945.81;;;22.78;32.10
61408;BME280;47274;43.054;25.146;2023-03-25T11:52:46;94927.66;;;22.71;30.42
61408;BME280;47274;43.054;25.146;2023-03-25T11:55:18;94940.41;;;22.39;31.74
61408;BME280;47274;43.054;25.146;2023-03-25T11:57:47;94924.84;;;22.04;32.70
61408;BME280;47274;43.054;25.146;2023-03-25T12:00:37;94937.75;;;21.82;31.69
61408;BME280;47274;43.054;25.146;2023-03-25T12:03:15;94933.34;;;21.59;31.76
61408;BME280;47274;43.054;25.146;2023-03-25T12:05:56;94899.06;;;21.55;31.54
61408;BME280;47274;43.054;25.146;2023-03-25T12:08:22;94894.16;;;21.70;31.86
61408;BME280;47274;43.054;25.146;2023-03-25T12:11:02;94911.16;;;21.85;31.85
61408;BME280;47274;43.054;25.146;2023-03-25T12:42:59;94909.44;;;22.31;32.95
61408;BME280;47274;43.054;25.146;2023-03-25T12:45:52;94885.25;;;22.23;32.70
61408;BME280;47274;43.054;25.146;2023-03-25T12:49:03;94892.66;;;22.15;32.57
61408;BME280;47274;43.054;25.146;2023-03-25T12:57:19;94893.84;;;20.85;32.75
61408;BME280;47274;43.054;25.146;2023-03-25T13:00:02;94903.34;;;20.67;34.20
61408;BME280;47274;43.054;25.146;2023-03-25T13:05:24;94901.56;;;20.38;34.27
61408;BME280;47274;43.054;25.146;2023-03-25T13:07:56;94887.38;;;20.33;34.87
61408;BME280;47274;43.054;25.146;2023-03-25T13:10:28;94880.16;;;20.47;35.08
61408;BME280;47274;43.054;25.146;2023-03-25T13:12:57;94876.25;;;20.56;34.92
61408;BME280;47274;43.054;25.146;2023-03-25T13:15:33;94868.78;;;20.72;35.13
61408;BME280;47274;43.054;25.146;2023-03-25T13:18:17;94880.91;;;20.78;35.09
61408;BME280;47274;43.054;25.146;2023-03-25T13:20:48;94863.78;;;20.58;35.84
61408;BME280;47274;43.054;25.146;2023-03-25T13:23:21;94864.16;;;20.32;35.69
61408;BME280;47274;43.054;25.146;2023-03-25T13:26:01;94886.81;;;20.62;36.88
61408;BME280;47274;43.054;25.146;2023-03-25T13:28:31;94877.28;;;20.67;36.44
61408;BME280;47274;43.054;25.146;2023-03-25T13:31:09;94861.84;;;20.54;36.51
61408;BME280;47274;43.054;25.146;2023-03-25T13:33:44;94880.22;;;20.59;36.09
61408;BME280;47274;43.054;25.146;2023-03-25T13:36:28;94879.16;;;20.48;37.25
61408;BME280;47274;43.054;25.146;2023-03-25T13:38:58;94874.03;;;20.42;36.62
61408;BME280;47274;43.054;25.146;2023-03-25T13:41:41;94868.56;;;20.31;36.97
61408;BME280;47274;43.054;25.146;2023-03-25T13:44:37;94872.91;;;20.07;36.42
61408;BME280;47274;43.054;25.146;2023-03-25T13:49:41;94863.31;;;19.89;36.77
61408;BME280;47274;43.054;25.146;2023-03-25T13:52:08;94861.25;;;19.80;36.86
61408;BME280;47274;43.054;25.146;2023-03-25T13:54:38;94864.81;;;19.67;37.63
61408;BME280;47274;43.054;25.146;2023-03-25T14:00:29;94857.34;;;19.52;38.64
61408;BME280;47274;43.054;25.146;2023-03-25T14:03:08;94860.66;;;19.41;38.11
61408;BME280;47274;43.054;25.146;2023-03-25T14:10:53;94865.75;;;18.92;39.08
61408;BME280;47274;43.054;25.146;2023-03-25T14:13:29;94853.78;;;18.91;38.95
61408;BME280;47274;43.054;25.146;2023-03-25T14:16:02;94852.91;;;18.98;39.82
61408;BME280;47274;43.054;25.146;2023-03-25T14:18:31;94855.66;;;19.03;39.07
61408;BME280;47274;43.054;25.146;2023-03-25T14:21:29;94858.19;;;18.91;39.22
61408;BME280;47274;43.054;25.146;2023-03-25T14:24:17;94853.00;;;18.59;39.23
61408;BME280;47274;43.054;25.146;2023-03-25T14:26:48;94853.06;;;18.53;39.87
61408;BME280;47274;43.054;25.146;2023-03-25T14:29:45;94829.84;;;18.33;40.71
61408;BME280;47274;43.054;25.146;2023-03-25T14:34:42;94857.50;;;18.20;40.75
61408;BME280;47274;43.054;25.146;2023-03-25T14:37:13;94866.28;;;18.19;40.97
61408;BME280;47274;43.054;25.146;2023-03-25T14:39:41;94847.00;;;18.09;41.63
61408;BME280;47274;43.054;25.146;2023-03-25T14:44:40;94854.63;;;17.97;41.72
61408;BME280;47274;43.054;25.146;2023-03-25T14:49:50;94858.53;;;17.74;43.03
61408;BME280;47274;43.054;25.146;2023-03-25T14:52:36;94838.63;;;17.55;42.86
61408;BME280;47274;43.054;25.146;2023-03-25T14:55:18;94855.78;;;17.56;43.66
61408;BME280;47274;43.054;25.146;2023-03-25T14:57:46;94857.22;;;17.52;42.99
61408;BME280;47274;43.054;25.146;2023-03-25T15:00:29;94847.84;;;17.44;43.82